sensor_id;sensor_type;location;lat;lon;timestamp;temperature;humidity
580;DHT22;276;48.392;9.950;2023-12-20T00:01:47;6.90;99.90
580;DHT22;276;48.392;9.950;2023-12-20T00:04:15;6.80;99.90
580;DHT22;276;48.392;9.950;2023-12-20T00:06:41;6.80;99.90
580;DHT22;276;48.392;9.950;2023-12-20T00:09:06;6.80;99.90
580;DHT22;276;48.392;9.950;2023-12-20T00:11:32;6.80;99.90
580;DHT22;276;48.392;9.950;2023-12-20T00:13:57;6.80;99.90
580;DHT22;276;48.392;9.950;2023-12-20T00:16:25;6.80;99.90
580;DHT22;276;48.392;9.950;2023-12-20T00:18:53;6.80;99.90
580;DHT22;276;48.392;9.950;2023-12-20T00:21:21;6.90;99.90
580;DHT22;276;48.392;9.950;2023-12-20T00:23:49;6.80;99.90
580;DHT22;276;48.392;9.950;2023-12-20T00:26:15;6.90;99.90
580;DHT22;276;48.392;9.950;2023-12-20T00:28:41;6.90;99.90
580;DHT22;276;48.392;9.950;2023-12-20T00:31:08;6.90;99.90
580;DHT22;276;48.392;9.950;2023-12-20T00:33:33;6.90;99.90
580;DHT22;276;48.392;9.950;2023-12-20T00:36:02;6.90;99.90
580;DHT22;276;48.392;9.950;2023-12-20T00:38:30;6.90;99.90
580;DHT22;276;48.392;9.950;2023-12-20T00:40:55;6.90;99.90
580;DHT22;276;48.392;9.950;2023-12-20T00:43:23;6.90;99.90
580;DHT22;276;48.392;9.950;2023-12-20T00:45:54;6.90;99.90
580;DHT22;276;48.392;9.950;2023-12-20T00:48:24;6.90;99.90
580;DHT22;276;48.392;9.950;2023-12-20T00:50:54;7.00;99.90
580;DHT22;276;48.392;9.950;2023-12-20T00:53:20;7.00;99.90
580;DHT22;276;48.392;9.950;2023-12-20T00:55:45;7.00;99.90
580;DHT22;276;48.392;9.950;2023-12-20T00:58:11;7.00;99.90
580;DHT22;276;48.392;9.950;2023-12-20T01:00:40;7.00;99.90
580;DHT22;276;48.392;9.950;2023-12-20T01:03:07;7.00;99.90
580;DHT22;276;48.392;9.950;2023-12-20T01:05:35;7.00;99.90
580;DHT22;276;48.392;9.950;2023-12-20T01:08:03;7.00;99.90
580;DHT22;276;48.392;9.950;2023-12-20T01:10:29;7.00;99.90
580;DHT22;276;48.392;9.950;2023-12-20T01:12:55;7.00;99.90
580;DHT22;276;48.392;9.950;2023-12-20T01:15:20;6.90;99.90
580;DHT22;276;48.392;9.950;2023-12-20T01:17:46;6.90;99.90
580;DHT22;276;48.392;9.950;2023-12-20T01:20:12;6.90;99.90
580;DHT22;276;48.392;9.950;2023-12-20T01:22:38;6.90;99.90
580;DHT22;276;48.392;9.950;2023-12-20T01:25:03;7.00;99.90
580;DHT22;276;48.392;9.950;2023-12-20T01:27:31;7.00;99.90
580;DHT22;276;48.392;9.950;2023-12-20T01:29:57;7.00;99.90
580;DHT22;276;48.392;9.950;2023-12-20T01:32:25;7.00;99.90
580;DHT22;276;48.392;9.950;2023-12-20T01:34:50;7.00;99.90
580;DHT22;276;48.392;9.950;2023-12-20T01:37:16;7.00;99.90
580;DHT22;276;48.392;9.950;2023-12-20T01:39:42;7.00;99.90
580;DHT22;276;48.392;9.950;2023-12-20T01:42:08;7.00;99.90
580;DHT22;276;48.392;9.950;2023-12-20T01:44:38;6.90;99.90
580;DHT22;276;48.392;9.950;2023-12-20T01:47:04;6.90;99.90
580;DHT22;276;48.392;9.950;2023-12-20T01:49:29;7.00;99.90
580;DHT22;276;48.392;9.950;2023-12-20T01:51:56;7.00;99.90
580;DHT22;276;48.392;9.950;2023-12-20T01:54:24;6.90;99.90
580;DHT22;276;48.392;9.950;2023-12-20T01:56:52;6.90;99.90
580;DHT22;276;48.392;9.950;2023-12-20T01:59:19;7.00;99.90
580;DHT22;276;48.392;9.950;2023-12-20T02:01:45;7.00;99.90
580;DHT22;276;48.392;9.950;2023-12-20T02:04:16;7.00;99.90
580;DHT22;276;48.392;9.950;2023-12-20T02:06:42;7.00;99.90
580;DHT22;276;48.392;9.950;2023-12-20T02:09:09;7.10;99.90
580;DHT22;276;48.392;9.950;2023-12-20T02:11:36;7.10;99.90
580;DHT22;276;48.392;9.950;2023-12-20T02:14:01;7.10;99.90
580;DHT22;276;48.392;9.950;2023-12-20T02:16:32;7.10;99.90
580;DHT22;276;48.392;9.950;2023-12-20T02:19:00;7.10;99.90
580;DHT22;276;48.392;9.950;2023-12-20T02:21:32;7.10;99.90
580;DHT22;276;48.392;9.950;2023-12-20T02:23:58;7.00;99.90
580;DHT22;276;48.392;9.950;2023-12-20T02:26:31;7.00;99.90
580;DHT22;276;48.392;9.950;2023-12-20T02:28:57;6.90;99.90
580;DHT22;276;48.392;9.950;2023-12-20T02:31:25;6.90;99.90
580;DHT22;276;48.392;9.950;2023-12-20T02:33:51;6.90;99.90
580;DHT22;276;48.392;9.950;2023-12-20T02:36:21;7.00;99.90
580;DHT22;276;48.392;9.950;2023-12-20T02:38:49;6.90;99.90
580;DHT22;276;48.392;9.950;2023-12-20T02:41:16;6.90;99.90
580;DHT22;276;48.392;9.950;2023-12-20T02:43:45;6.90;99.90
580;DHT22;276;48.392;9.950;2023-12-20T02:46:15;7.00;99.90
580;DHT22;276;48.392;9.950;2023-12-20T02:48:43;6.90;99.90
580;DHT22;276;48.392;9.950;2023-12-20T02:51:12;6.90;99.90
580;DHT22;276;48.392;9.950;2023-12-20T02:53:38;6.90;99.90
580;DHT22;276;48.392;9.950;2023-12-20T02:56:04;6.90;99.90
580;DHT22;276;48.392;9.950;2023-12-20T02:58:31;6.90;99.90
580;DHT22;276;48.392;9.950;2023-12-20T03:00:57;6.90;99.90
580;DHT22;276;48.392;9.950;2023-12-20T03:03:22;6.90;99.90
580;DHT22;276;48.392;9.950;2023-12-20T03:05:53;6.90;99.90
580;DHT22;276;48.392;9.950;2023-12-20T03:08:23;6.90;99.90
580;DHT22;276;48.392;9.950;2023-12-20T03:10:49;6.90;99.90
580;DHT22;276;48.392;9.950;2023-12-20T03:13:15;7.00;99.90
580;DHT22;276;48.392;9.950;2023-12-20T03:15:43;7.00;99.90
580;DHT22;276;48.392;9.950;2023-12-20T03:18:08;7.10;99.90
580;DHT22;276;48.392;9.950;2023-12-20T03:20:37;7.10;99.90
580;DHT22;276;48.392;9.950;2023-12-20T03:23:04;7.10;99.90
580;DHT22;276;48.392;9.950;2023-12-20T03:25:32;7.20;99.90
580;DHT22;276;48.392;9.950;2023-12-20T03:28:00;7.20;99.90
580;DHT22;276;48.392;9.950;2023-12-20T03:30:26;7.20;99.90
580;DHT22;276;48.392;9.950;2023-12-20T03:32:54;7.20;99.90
580;DHT22;276;48.392;9.950;2023-12-20T03:35:24;7.30;99.90
580;DHT22;276;48.392;9.950;2023-12-20T03:37:54;7.30;99.90
580;DHT22;276;48.392;9.950;2023-12-20T03:40:25;7.40;99.90
580;DHT22;276;48.392;9.950;2023-12-20T03:42:53;7.40;99.90
580;DHT22;276;48.392;9.950;2023-12-20T03:45:19;7.40;99.90
580;DHT22;276;48.392;9.950;2023-12-20T03:47:47;7.40;99.90
580;DHT22;276;48.392;9.950;2023-12-20T03:50:15;7.40;99.90
580;DHT22;276;48.392;9.950;2023-12-20T03:52:43;7.40;99.90
580;DHT22;276;48.392;9.950;2023-12-20T03:55:09;7.30;99.90
580;DHT22;276;48.392;9.950;2023-12-20T03:57:37;7.30;99.90
580;DHT22;276;48.392;9.950;2023-12-20T04:00:08;7.30;99.90
580;DHT22;276;48.392;9.950;2023-12-20T04:02:40;7.30;99.90
580;DHT22;276;48.392;9.950;2023-12-20T04:05:12;7.30;99.90
580;DHT22;276;48.392;9.950;2023-12-20T04:07:40;7.30;99.90
580;DHT22;276;48.392;9.950;2023-12-20T04:10:06;7.30;99.90
580;DHT22;276;48.392;9.950;2023-12-20T04:12:32;7.30;99.90
580;DHT22;276;48.392;9.950;2023-12-20T04:14:58;7.30;99.90
580;DHT22;276;48.392;9.950;2023-12-20T04:17:24;7.30;99.90
580;DHT22;276;48.392;9.950;2023-12-20T04:19:52;7.30;99.90
580;DHT22;276;48.392;9.950;2023-12-20T04:22:22;7.40;99.90
580;DHT22;276;48.392;9.950;2023-12-20T04:24:48;7.40;99.90
580;DHT22;276;48.392;9.950;2023-12-20T04:27:13;7.40;99.90
580;DHT22;276;48.392;9.950;2023-12-20T04:29:42;7.40;99.90
580;DHT22;276;48.392;9.950;2023-12-20T04:32:08;7.30;99.90
580;DHT22;276;48.392;9.950;2023-12-20T04:34:33;7.30;99.90
580;DHT22;276;48.392;9.950;2023-12-20T04:37:01;7.40;99.90
580;DHT22;276;48.392;9.950;2023-12-20T04:39:31;7.40;99.90
580;DHT22;276;48.392;9.950;2023-12-20T04:41:57;7.40;99.90
580;DHT22;276;48.392;9.950;2023-12-20T04:44:23;7.40;99.90
580;DHT22;276;48.392;9.950;2023-12-20T04:46:49;7.40;99.90
580;DHT22;276;48.392;9.950;2023-12-20T04:49:17;7.40;99.90
580;DHT22;276;48.392;9.950;2023-12-20T04:51:42;7.40;99.90
580;DHT22;276;48.392;9.950;2023-12-20T04:54:08;7.40;99.90
580;DHT22;276;48.392;9.950;2023-12-20T04:56:36;7.40;99.90
580;DHT22;276;48.392;9.950;2023-12-20T04:59:01;7.50;99.90
580;DHT22;276;48.392;9.950;2023-12-20T05:01:29;7.50;99.90
580;DHT22;276;48.392;9.950;2023-12-20T05:03:55;7.50;99.90
580;DHT22;276;48.392;9.950;2023-12-20T05:06:23;7.50;99.90
580;DHT22;276;48.392;9.950;2023-12-20T05:08:50;7.50;99.90
580;DHT22;276;48.392;9.950;2023-12-20T05:11:17;7.50;99.90
580;DHT22;276;48.392;9.950;2023-12-20T05:13:43;7.50;99.90
580;DHT22;276;48.392;9.950;2023-12-20T05:16:09;7.60;99.90
580;DHT22;276;48.392;9.950;2023-12-20T05:18:37;7.60;99.90
580;DHT22;276;48.392;9.950;2023-12-20T05:21:02;7.60;99.90
580;DHT22;276;48.392;9.950;2023-12-20T05:23:33;7.50;99.90
580;DHT22;276;48.392;9.950;2023-12-20T05:26:03;7.50;99.90
580;DHT22;276;48.392;9.950;2023-12-20T05:28:31;7.50;99.90
580;DHT22;276;48.392;9.950;2023-12-20T05:30:57;7.40;99.90
580;DHT22;276;48.392;9.950;2023-12-20T05:33:25;7.40;99.90
580;DHT22;276;48.392;9.950;2023-12-20T05:35:51;7.40;99.90
580;DHT22;276;48.392;9.950;2023-12-20T05:38:19;7.50;99.90
580;DHT22;276;48.392;9.950;2023-12-20T05:40:47;7.50;99.90
580;DHT22;276;48.392;9.950;2023-12-20T05:43:14;7.50;99.90
580;DHT22;276;48.392;9.950;2023-12-20T05:45:42;7.60;99.90
580;DHT22;276;48.392;9.950;2023-12-20T05:48:10;7.60;99.90
580;DHT22;276;48.392;9.950;2023-12-20T05:50:36;7.70;99.90
580;DHT22;276;48.392;9.950;2023-12-20T05:53:02;7.70;99.90
580;DHT22;276;48.392;9.950;2023-12-20T05:55:30;7.70;99.90
580;DHT22;276;48.392;9.950;2023-12-20T05:57:56;7.70;99.90
580;DHT22;276;48.392;9.950;2023-12-20T06:00:21;7.70;99.90
580;DHT22;276;48.392;9.950;2023-12-20T06:02:49;7.60;99.90
580;DHT22;276;48.392;9.950;2023-12-20T06:05:15;7.60;99.90
580;DHT22;276;48.392;9.950;2023-12-20T06:07:40;7.60;99.90
580;DHT22;276;48.392;9.950;2023-12-20T06:10:08;7.60;99.90
580;DHT22;276;48.392;9.950;2023-12-20T06:12:39;7.70;99.90
580;DHT22;276;48.392;9.950;2023-12-20T06:15:07;7.60;99.90
580;DHT22;276;48.392;9.950;2023-12-20T06:17:33;7.60;99.90
580;DHT22;276;48.392;9.950;2023-12-20T06:20:00;7.60;99.90
580;DHT22;276;48.392;9.950;2023-12-20T06:22:34;7.60;99.90
580;DHT22;276;48.392;9.950;2023-12-20T06:25:02;7.70;99.90
580;DHT22;276;48.392;9.950;2023-12-20T06:27:30;7.70;99.90
580;DHT22;276;48.392;9.950;2023-12-20T06:29:57;7.70;99.90
580;DHT22;276;48.392;9.950;2023-12-20T06:32:26;7.70;99.90
580;DHT22;276;48.392;9.950;2023-12-20T06:34:54;7.70;99.90
580;DHT22;276;48.392;9.950;2023-12-20T06:37:20;7.70;99.90
580;DHT22;276;48.392;9.950;2023-12-20T06:39:45;7.70;99.90
580;DHT22;276;48.392;9.950;2023-12-20T06:42:12;7.70;99.90
580;DHT22;276;48.392;9.950;2023-12-20T06:44:40;7.70;99.90
580;DHT22;276;48.392;9.950;2023-12-20T06:47:08;7.70;99.90
580;DHT22;276;48.392;9.950;2023-12-20T06:49:34;7.70;99.90
580;DHT22;276;48.392;9.950;2023-12-20T06:52:02;7.70;99.90
580;DHT22;276;48.392;9.950;2023-12-20T06:54:30;7.60;99.90
580;DHT22;276;48.392;9.950;2023-12-20T06:57:00;7.60;99.90
580;DHT22;276;48.392;9.950;2023-12-20T06:59:25;7.60;99.90
580;DHT22;276;48.392;9.950;2023-12-20T07:01:56;7.60;99.90
580;DHT22;276;48.392;9.950;2023-12-20T07:04:24;7.60;99.90
580;DHT22;276;48.392;9.950;2023-12-20T07:06:49;7.60;99.90
580;DHT22;276;48.392;9.950;2023-12-20T07:09:24;7.50;99.90
580;DHT22;276;48.392;9.950;2023-12-20T07:11:52;7.50;99.90
580;DHT22;276;48.392;9.950;2023-12-20T07:14:20;7.50;99.90
580;DHT22;276;48.392;9.950;2023-12-20T07:16:48;7.50;99.90
580;DHT22;276;48.392;9.950;2023-12-20T07:19:16;7.50;99.90
580;DHT22;276;48.392;9.950;2023-12-20T07:21:44;7.60;99.90
580;DHT22;276;48.392;9.950;2023-12-20T07:24:10;7.60;99.90
580;DHT22;276;48.392;9.950;2023-12-20T07:26:38;7.60;99.90
580;DHT22;276;48.392;9.950;2023-12-20T07:29:04;7.60;99.90
580;DHT22;276;48.392;9.950;2023-12-20T07:31:30;7.60;99.90
580;DHT22;276;48.392;9.950;2023-12-20T07:33:58;7.70;99.90
580;DHT22;276;48.392;9.950;2023-12-20T07:36:24;7.70;99.90
580;DHT22;276;48.392;9.950;2023-12-20T07:38:49;7.70;99.90
580;DHT22;276;48.392;9.950;2023-12-20T07:41:17;7.60;99.90
580;DHT22;276;48.392;9.950;2023-12-20T07:43:46;7.60;99.90
580;DHT22;276;48.392;9.950;2023-12-20T07:46:12;7.60;99.90
580;DHT22;276;48.392;9.950;2023-12-20T07:48:37;7.70;99.90
580;DHT22;276;48.392;9.950;2023-12-20T07:51:06;7.70;99.90
580;DHT22;276;48.392;9.950;2023-12-20T07:53:33;7.70;99.90
580;DHT22;276;48.392;9.950;2023-12-20T07:55:59;7.70;99.90
580;DHT22;276;48.392;9.950;2023-12-20T07:58:27;7.70;99.90
580;DHT22;276;48.392;9.950;2023-12-20T08:00:55;7.80;99.90
580;DHT22;276;48.392;9.950;2023-12-20T08:03:23;7.80;99.90
580;DHT22;276;48.392;9.950;2023-12-20T08:05:49;7.80;99.90
580;DHT22;276;48.392;9.950;2023-12-20T08:08:14;7.80;99.90
580;DHT22;276;48.392;9.950;2023-12-20T08:10:40;7.70;99.90
580;DHT22;276;48.392;9.950;2023-12-20T08:13:05;7.70;99.90
580;DHT22;276;48.392;9.950;2023-12-20T08:15:36;7.70;99.90
580;DHT22;276;48.392;9.950;2023-12-20T08:18:03;7.70;99.90
580;DHT22;276;48.392;9.950;2023-12-20T08:20:31;7.60;99.90
580;DHT22;276;48.392;9.950;2023-12-20T08:22:59;7.60;99.90
580;DHT22;276;48.392;9.950;2023-12-20T08:25:24;7.60;99.90
580;DHT22;276;48.392;9.950;2023-12-20T08:27:55;7.60;99.90
580;DHT22;276;48.392;9.950;2023-12-20T08:30:20;7.60;99.90
580;DHT22;276;48.392;9.950;2023-12-20T08:32:50;7.60;99.90
580;DHT22;276;48.392;9.950;2023-12-20T08:35:18;7.60;99.90
580;DHT22;276;48.392;9.950;2023-12-20T08:37:44;7.70;99.90
580;DHT22;276;48.392;9.950;2023-12-20T08:40:10;7.80;99.90
580;DHT22;276;48.392;9.950;2023-12-20T08:42:35;7.70;99.90
580;DHT22;276;48.392;9.950;2023-12-20T08:45:01;7.80;99.90
580;DHT22;276;48.392;9.950;2023-12-20T08:47:29;7.80;99.90
580;DHT22;276;48.392;9.950;2023-12-20T08:49:55;7.90;99.90
580;DHT22;276;48.392;9.950;2023-12-20T08:52:22;7.90;99.90
580;DHT22;276;48.392;9.950;2023-12-20T08:54:49;7.90;99.90
580;DHT22;276;48.392;9.950;2023-12-20T08:57:19;7.90;99.90
580;DHT22;276;48.392;9.950;2023-12-20T08:59:47;8.00;99.90
580;DHT22;276;48.392;9.950;2023-12-20T09:02:12;8.10;99.90
580;DHT22;276;48.392;9.950;2023-12-20T09:04:40;8.10;99.90
580;DHT22;276;48.392;9.950;2023-12-20T09:07:06;8.10;99.90
580;DHT22;276;48.392;9.950;2023-12-20T09:09:33;8.10;99.90
580;DHT22;276;48.392;9.950;2023-12-20T09:11:59;8.10;99.90
580;DHT22;276;48.392;9.950;2023-12-20T09:14:26;8.10;99.90
580;DHT22;276;48.392;9.950;2023-12-20T09:16:52;8.20;99.90
580;DHT22;276;48.392;9.950;2023-12-20T09:19:21;8.20;99.90
580;DHT22;276;48.392;9.950;2023-12-20T09:21:46;8.40;99.90
580;DHT22;276;48.392;9.950;2023-12-20T09:24:14;8.50;99.90
580;DHT22;276;48.392;9.950;2023-12-20T09:26:42;8.60;99.90
580;DHT22;276;48.392;9.950;2023-12-20T09:29:09;8.70;99.90
580;DHT22;276;48.392;9.950;2023-12-20T09:31:38;8.70;99.90
580;DHT22;276;48.392;9.950;2023-12-20T09:34:07;8.70;99.90
580;DHT22;276;48.392;9.950;2023-12-20T09:36:37;8.80;99.90
580;DHT22;276;48.392;9.950;2023-12-20T09:39:10;8.80;99.90
580;DHT22;276;48.392;9.950;2023-12-20T09:41:45;8.90;99.90
580;DHT22;276;48.392;9.950;2023-12-20T09:44:16;8.90;99.90
580;DHT22;276;48.392;9.950;2023-12-20T09:46:44;9.10;99.90
580;DHT22;276;48.392;9.950;2023-12-20T09:49:11;9.60;99.90
580;DHT22;276;48.392;9.950;2023-12-20T09:51:38;9.80;99.90
580;DHT22;276;48.392;9.950;2023-12-20T09:54:07;9.90;99.90
580;DHT22;276;48.392;9.950;2023-12-20T09:56:37;9.90;99.90
580;DHT22;276;48.392;9.950;2023-12-20T09:59:02;9.80;99.90
580;DHT22;276;48.392;9.950;2023-12-20T10:01:28;9.80;99.90
580;DHT22;276;48.392;9.950;2023-12-20T10:03:54;9.80;99.90
580;DHT22;276;48.392;9.950;2023-12-20T10:06:23;9.70;99.90
580;DHT22;276;48.392;9.950;2023-12-20T10:08:49;9.70;99.90
580;DHT22;276;48.392;9.950;2023-12-20T10:11:14;9.60;99.90
580;DHT22;276;48.392;9.950;2023-12-20T10:13:41;9.60;99.90
580;DHT22;276;48.392;9.950;2023-12-20T10:16:07;9.60;99.90
580;DHT22;276;48.392;9.950;2023-12-20T10:18:36;9.50;99.90
580;DHT22;276;48.392;9.950;2023-12-20T10:21:01;9.50;99.90
580;DHT22;276;48.392;9.950;2023-12-20T10:23:28;9.50;99.90
580;DHT22;276;48.392;9.950;2023-12-20T10:25:59;9.50;99.90
580;DHT22;276;48.392;9.950;2023-12-20T10:28:35;9.60;99.90
580;DHT22;276;48.392;9.950;2023-12-20T10:31:03;9.60;99.90
580;DHT22;276;48.392;9.950;2023-12-20T10:33:30;9.60;99.90
580;DHT22;276;48.392;9.950;2023-12-20T10:35:57;9.50;99.90
580;DHT22;276;48.392;9.950;2023-12-20T10:38:23;9.50;99.90
580;DHT22;276;48.392;9.950;2023-12-20T10:40:57;9.40;99.90
580;DHT22;276;48.392;9.950;2023-12-20T10:43:24;9.40;99.90
580;DHT22;276;48.392;9.950;2023-12-20T10:45:52;9.40;99.90
580;DHT22;276;48.392;9.950;2023-12-20T10:48:18;9.40;99.90
580;DHT22;276;48.392;9.950;2023-12-20T10:50:47;9.40;99.90
580;DHT22;276;48.392;9.950;2023-12-20T10:53:13;9.30;99.90
580;DHT22;276;48.392;9.950;2023-12-20T10:55:39;9.10;99.90
580;DHT22;276;48.392;9.950;2023-12-20T10:58:08;9.10;99.90
580;DHT22;276;48.392;9.950;2023-12-20T11:00:40;9.10;99.90
580;DHT22;276;48.392;9.950;2023-12-20T11:03:11;9.10;99.90
580;DHT22;276;48.392;9.950;2023-12-20T11:08:20;9.30;99.90
580;DHT22;276;48.392;9.950;2023-12-20T11:11:07;10.00;99.90
580;DHT22;276;48.392;9.950;2023-12-20T11:13:41;12.40;99.90
580;DHT22;276;48.392;9.950;2023-12-20T11:16:11;15.40;99.90
580;DHT22;276;48.392;9.950;2023-12-20T11:18:40;18.20;96.80
580;DHT22;276;48.392;9.950;2023-12-20T11:21:06;20.60;91.60
580;DHT22;276;48.392;9.950;2023-12-20T11:23:35;22.20;82.00
580;DHT22;276;48.392;9.950;2023-12-20T11:26:02;23.40;75.20
580;DHT22;276;48.392;9.950;2023-12-20T11:28:33;24.60;68.70
580;DHT22;276;48.392;9.950;2023-12-20T11:31:01;25.10;63.50
580;DHT22;276;48.392;9.950;2023-12-20T11:36:01;25.10;58.80
580;DHT22;276;48.392;9.950;2023-12-20T11:38:36;25.10;58.00
580;DHT22;276;48.392;9.950;2023-12-20T11:41:05;25.60;56.30
580;DHT22;276;48.392;9.950;2023-12-20T11:43:38;26.10;54.50
580;DHT22;276;48.392;9.950;2023-12-20T11:46:10;26.70;52.90
580;DHT22;276;48.392;9.950;2023-12-20T11:48:37;27.20;51.20
580;DHT22;276;48.392;9.950;2023-12-20T11:51:12;27.60;50.40
580;DHT22;276;48.392;9.950;2023-12-20T11:53:39;27.90;48.80
580;DHT22;276;48.392;9.950;2023-12-20T11:56:08;26.50;49.00
580;DHT22;276;48.392;9.950;2023-12-20T11:58:34;25.50;50.20
580;DHT22;276;48.392;9.950;2023-12-20T12:01:00;25.10;50.40
580;DHT22;276;48.392;9.950;2023-12-20T12:03:30;23.90;51.20
580;DHT22;276;48.392;9.950;2023-12-20T12:05:55;23.00;52.10
580;DHT22;276;48.392;9.950;2023-12-20T12:08:21;22.40;53.10
580;DHT22;276;48.392;9.950;2023-12-20T12:10:47;22.70;53.70
580;DHT22;276;48.392;9.950;2023-12-20T12:13:13;23.50;53.10
580;DHT22;276;48.392;9.950;2023-12-20T12:15:39;23.70;52.40
580;DHT22;276;48.392;9.950;2023-12-20T12:18:07;23.20;52.40
580;DHT22;276;48.392;9.950;2023-12-20T12:20:35;22.00;53.20
580;DHT22;276;48.392;9.950;2023-12-20T12:23:04;20.40;53.30
580;DHT22;276;48.392;9.950;2023-12-20T12:25:31;19.30;55.40
580;DHT22;276;48.392;9.950;2023-12-20T12:28:01;18.30;57.40
580;DHT22;276;48.392;9.950;2023-12-20T12:30:27;18.60;58.50
580;DHT22;276;48.392;9.950;2023-12-20T12:32:53;19.90;57.40
580;DHT22;276;48.392;9.950;2023-12-20T12:35:19;20.70;56.00
580;DHT22;276;48.392;9.950;2023-12-20T12:37:47;21.50;55.00
580;DHT22;276;48.392;9.950;2023-12-20T12:40:14;22.60;53.20
580;DHT22;276;48.392;9.950;2023-12-20T12:42:41;23.60;51.60
580;DHT22;276;48.392;9.950;2023-12-20T12:45:07;23.80;50.60
580;DHT22;276;48.392;9.950;2023-12-20T12:47:36;23.90;50.50
580;DHT22;276;48.392;9.950;2023-12-20T12:50:03;23.60;49.90
580;DHT22;276;48.392;9.950;2023-12-20T12:52:31;22.50;50.30
580;DHT22;276;48.392;9.950;2023-12-20T12:54:57;21.50;51.70
580;DHT22;276;48.392;9.950;2023-12-20T12:57:22;22.00;52.30
580;DHT22;276;48.392;9.950;2023-12-20T12:59:49;21.70;51.80
580;DHT22;276;48.392;9.950;2023-12-20T13:02:17;20.50;52.60
580;DHT22;276;48.392;9.950;2023-12-20T13:04:43;19.60;53.90
580;DHT22;276;48.392;9.950;2023-12-20T13:07:14;19.00;54.50
580;DHT22;276;48.392;9.950;2023-12-20T13:09:41;18.10;55.10
580;DHT22;276;48.392;9.950;2023-12-20T13:12:07;17.10;56.20
580;DHT22;276;48.392;9.950;2023-12-20T13:14:35;16.60;57.70
580;DHT22;276;48.392;9.950;2023-12-20T13:17:04;16.90;58.40
580;DHT22;276;48.392;9.950;2023-12-20T13:19:34;17.80;56.70
580;DHT22;276;48.392;9.950;2023-12-20T13:22:00;18.40;55.20
580;DHT22;276;48.392;9.950;2023-12-20T13:24:26;17.90;55.50
580;DHT22;276;48.392;9.950;2023-12-20T13:26:54;17.00;56.70
580;DHT22;276;48.392;9.950;2023-12-20T13:29:20;16.00;58.20
580;DHT22;276;48.392;9.950;2023-12-20T13:31:45;15.00;59.70
580;DHT22;276;48.392;9.950;2023-12-20T13:34:13;14.20;62.70
580;DHT22;276;48.392;9.950;2023-12-20T13:36:39;13.50;65.00
580;DHT22;276;48.392;9.950;2023-12-20T13:39:07;12.90;67.20
580;DHT22;276;48.392;9.950;2023-12-20T13:41:33;12.40;69.10
580;DHT22;276;48.392;9.950;2023-12-20T13:43:58;11.90;71.00
580;DHT22;276;48.392;9.950;2023-12-20T13:46:24;11.50;72.50
580;DHT22;276;48.392;9.950;2023-12-20T13:48:50;11.20;73.50
580;DHT22;276;48.392;9.950;2023-12-20T13:51:15;10.90;75.00
580;DHT22;276;48.392;9.950;2023-12-20T13:53:43;10.70;76.00
580;DHT22;276;48.392;9.950;2023-12-20T13:56:08;10.50;77.10
580;DHT22;276;48.392;9.950;2023-12-20T13:58:36;10.50;78.30
580;DHT22;276;48.392;9.950;2023-12-20T14:01:05;10.40;79.20
580;DHT22;276;48.392;9.950;2023-12-20T14:03:30;10.30;80.60
580;DHT22;276;48.392;9.950;2023-12-20T14:06:01;10.20;80.80
580;DHT22;276;48.392;9.950;2023-12-20T14:08:27;10.20;82.00
580;DHT22;276;48.392;9.950;2023-12-20T14:10:55;10.10;82.90
580;DHT22;276;48.392;9.950;2023-12-20T14:13:21;10.10;83.70
580;DHT22;276;48.392;9.950;2023-12-20T14:15:46;10.00;85.00
580;DHT22;276;48.392;9.950;2023-12-20T14:18:14;10.00;86.20
580;DHT22;276;48.392;9.950;2023-12-20T14:20:45;9.90;88.20
580;DHT22;276;48.392;9.950;2023-12-20T14:23:16;9.90;88.70
580;DHT22;276;48.392;9.950;2023-12-20T14:25:42;9.80;88.80
580;DHT22;276;48.392;9.950;2023-12-20T14:28:07;9.80;89.10
580;DHT22;276;48.392;9.950;2023-12-20T14:30:33;9.80;89.50
580;DHT22;276;48.392;9.950;2023-12-20T14:33:03;9.70;89.70
580;DHT22;276;48.392;9.950;2023-12-20T14:35:29;9.70;89.60
580;DHT22;276;48.392;9.950;2023-12-20T14:37:55;9.70;89.70
580;DHT22;276;48.392;9.950;2023-12-20T14:40:20;9.70;89.90
580;DHT22;276;48.392;9.950;2023-12-20T14:42:51;9.70;89.80
580;DHT22;276;48.392;9.950;2023-12-20T14:45:16;9.60;89.70
580;DHT22;276;48.392;9.950;2023-12-20T14:47:45;9.50;89.10
580;DHT22;276;48.392;9.950;2023-12-20T14:50:10;9.40;89.70
580;DHT22;276;48.392;9.950;2023-12-20T14:52:43;9.30;90.00
580;DHT22;276;48.392;9.950;2023-12-20T14:55:10;9.20;89.70
580;DHT22;276;48.392;9.950;2023-12-20T14:57:36;9.10;90.20
580;DHT22;276;48.392;9.950;2023-12-20T15:00:05;9.00;90.20
580;DHT22;276;48.392;9.950;2023-12-20T15:02:30;8.80;90.40
580;DHT22;276;48.392;9.950;2023-12-20T15:04:59;8.70;90.80
580;DHT22;276;48.392;9.950;2023-12-20T15:07:25;8.70;91.30
580;DHT22;276;48.392;9.950;2023-12-20T15:09:53;8.70;92.00
580;DHT22;276;48.392;9.950;2023-12-20T15:12:24;8.50;92.40
580;DHT22;276;48.392;9.950;2023-12-20T15:14:50;8.50;92.80
580;DHT22;276;48.392;9.950;2023-12-20T15:17:15;8.50;93.20
580;DHT22;276;48.392;9.950;2023-12-20T15:19:41;8.40;93.80
580;DHT22;276;48.392;9.950;2023-12-20T15:22:09;8.40;94.00
580;DHT22;276;48.392;9.950;2023-12-20T15:24:39;8.30;94.40
580;DHT22;276;48.392;9.950;2023-12-20T15:27:06;8.30;94.80
580;DHT22;276;48.392;9.950;2023-12-20T15:29:32;8.20;95.30
580;DHT22;276;48.392;9.950;2023-12-20T15:31:58;8.20;95.90
580;DHT22;276;48.392;9.950;2023-12-20T15:34:26;8.10;96.50
580;DHT22;276;48.392;9.950;2023-12-20T15:36:56;8.00;97.10
580;DHT22;276;48.392;9.950;2023-12-20T15:39:25;8.00;97.50
580;DHT22;276;48.392;9.950;2023-12-20T15:41:52;8.00;98.00
580;DHT22;276;48.392;9.950;2023-12-20T15:44:18;8.00;98.30
580;DHT22;276;48.392;9.950;2023-12-20T15:46:46;8.00;98.40
580;DHT22;276;48.392;9.950;2023-12-20T15:49:19;8.00;98.50
580;DHT22;276;48.392;9.950;2023-12-20T15:51:45;8.00;98.70
580;DHT22;276;48.392;9.950;2023-12-20T15:54:13;8.00;98.80
580;DHT22;276;48.392;9.950;2023-12-20T15:56:41;8.00;99.00
580;DHT22;276;48.392;9.950;2023-12-20T15:59:10;8.00;99.10
580;DHT22;276;48.392;9.950;2023-12-20T16:01:38;8.00;99.10
580;DHT22;276;48.392;9.950;2023-12-20T16:04:04;8.00;99.30
580;DHT22;276;48.392;9.950;2023-12-20T16:06:30;7.90;99.40
580;DHT22;276;48.392;9.950;2023-12-20T16:08:56;7.80;99.50
580;DHT22;276;48.392;9.950;2023-12-20T16:11:23;7.80;99.60
580;DHT22;276;48.392;9.950;2023-12-20T16:13:50;7.70;99.70
580;DHT22;276;48.392;9.950;2023-12-20T16:16:16;7.70;99.70
580;DHT22;276;48.392;9.950;2023-12-20T16:18:44;7.60;99.80
580;DHT22;276;48.392;9.950;2023-12-20T16:21:09;7.60;99.90
580;DHT22;276;48.392;9.950;2023-12-20T16:23:35;7.60;99.90
580;DHT22;276;48.392;9.950;2023-12-20T16:26:01;7.60;99.90
580;DHT22;276;48.392;9.950;2023-12-20T16:28:26;7.60;99.90
580;DHT22;276;48.392;9.950;2023-12-20T16:40:01;7.60;99.90
580;DHT22;276;48.392;9.950;2023-12-20T16:42:27;7.60;99.90
580;DHT22;276;48.392;9.950;2023-12-20T16:44:52;7.50;99.90
580;DHT22;276;48.392;9.950;2023-12-20T16:47:20;7.50;99.90
580;DHT22;276;48.392;9.950;2023-12-20T16:49:46;7.50;99.90
580;DHT22;276;48.392;9.950;2023-12-20T16:52:12;7.50;99.90
580;DHT22;276;48.392;9.950;2023-12-20T16:54:40;7.50;99.90
580;DHT22;276;48.392;9.950;2023-12-20T16:57:08;7.50;99.90
580;DHT22;276;48.392;9.950;2023-12-20T16:59:33;7.50;99.90
580;DHT22;276;48.392;9.950;2023-12-20T17:01:59;7.50;99.90
580;DHT22;276;48.392;9.950;2023-12-20T17:04:27;7.50;99.90